Time;durP1;ratioP1;P1;durP2;ratioP2;P2;SDS_P1;SDS_P2;PMS_P1;PMS_P2;Temp;Humidity;BMP_temperature;BMP_pressure;BME280_temperature;BME280_humidity;BME280_pressure;Samples;Min_cycle;Max_cycle;Signal;HPM_P1;HPM_P2
2022/10/30 00:02:02;;;;;;;11.70;2.65;;;16.20;76.90;;;;;;4928153;29;20350;-78
2022/10/30 00:04:28;;;;;;;11.10;2.58;;;16.20;76.90;;;;;;4945427;29;20330;-77
2022/10/30 00:06:54;;;;;;;7.32;2.40;;;16.20;76.90;;;;;;4946343;28;20490;-77
2022/10/30 00:09:20;;;;;;;12.18;2.20;;;16.20;77.00;;;;;;4928284;28;20051;-78
2022/10/30 00:11:45;;;;;;;10.07;2.10;;;16.20;77.00;;;;;;4928808;29;20390;-78
2022/10/30 00:14:12;;;;;;;13.00;3.47;;;16.20;77.00;;;;;;4942561;28;20028;-77
2022/10/30 00:16:38;;;;;;;8.32;2.22;;;16.20;77.10;;;;;;4935172;29;20031;-78
2022/10/30 00:19:04;;;;;;;9.90;2.15;;;16.20;77.10;;;;;;4926861;29;20042;-78
2022/10/30 00:21:30;;;;;;;10.35;2.03;;;16.20;77.10;;;;;;4945715;29;20110;-79
2022/10/30 00:23:56;;;;;;;8.55;1.83;;;16.20;77.10;;;;;;4941469;28;20054;-78
2022/10/30 00:26:23;;;;;;;9.05;2.35;;;16.20;77.10;;;;;;4946289;28;20053;-78
2022/10/30 00:28:53;;;;;;;8.65;2.85;;;16.20;77.10;;;;;;4907266;28;1100076;-78
2022/10/30 00:31:20;;;;;;;12.05;2.50;;;16.20;77.20;;;;;;4929687;29;20398;-78
2022/10/30 00:33:53;;;;;;;8.35;2.00;;;16.10;76.90;;;;;;4944102;28;20038;-78
2022/10/30 00:36:20;;;;;;;7.93;2.35;;;16.20;77.20;;;;;;4945987;28;20042;-78
2022/10/30 00:38:47;;;;;;;10.10;2.35;;;16.10;77.00;;;;;;4946629;28;20491;-78
2022/10/30 00:41:15;;;;;;;10.13;2.22;;;16.20;77.20;;;;;;4929142;29;20031;-78
2022/10/30 00:43:41;;;;;;;8.20;2.45;;;16.10;77.10;;;;;;4946020;29;20043;-78
2022/10/30 00:46:29;;;;;;;10.65;3.38;;;16.10;77.10;;;;;;4929626;29;20027;-78
2022/10/30 00:48:59;;;;;;;12.68;2.72;;;16.10;77.10;;;;;;4933665;28;20043;-78
2022/10/30 00:51:27;;;;;;;9.90;2.40;;;16.10;77.10;;;;;;4929105;29;20039;-78
2022/10/30 00:53:56;;;;;;;13.48;3.08;;;16.00;77.00;;;;;;4929175;29;20027;-77
2022/10/30 00:56:23;;;;;;;9.57;3.05;;;16.00;77.00;;;;;;4913590;29;20031;-78
2022/10/30 00:58:57;;;;;;;11.35;2.50;;;16.00;77.00;;;;;;4928799;29;20330;-78
2022/10/30 01:01:26;;;;;;;11.60;2.63;;;16.00;77.10;;;;;;4929257;29;20102;-78
2022/10/30 01:03:55;;;;;;;10.02;3.55;;;16.00;77.10;;;;;;4925815;29;20450;-78
2022/10/30 01:06:22;;;;;;;6.28;1.55;;;15.90;76.90;;;;;;4928847;29;20053;-78
2022/10/30 01:08:49;;;;;;;8.93;2.22;;;15.90;77.00;;;;;;4946554;28;20039;-77
2022/10/30 01:11:16;;;;;;;10.05;2.88;;;15.90;77.00;;;;;;4928149;29;20495;-76
2022/10/30 01:13:45;;;;;;;10.32;2.55;;;15.90;77.00;;;;;;4945278;29;20027;-78
2022/10/30 01:16:41;;;;;;;10.10;2.25;;;15.90;77.10;;;;;;4931978;28;20035;-77
2022/10/30 01:19:19;;;;;;;9.32;2.00;;;15.90;77.10;;;;;;4928222;29;20043;-78
2022/10/30 01:22:35;;;;;;;10.85;2.80;;;15.90;77.10;;;;;;4926060;29;20487;-78
2022/10/30 01:25:22;;;;;;;11.27;3.03;;;15.90;77.20;;;;;;4820249;29;20038;-78
2022/10/30 01:28:26;;;;;;;6.28;1.58;;;15.90;77.10;;;;;;4918524;29;20528;-78
2022/10/30 01:31:15;;;;;;;9.65;2.33;;;15.80;77.00;;;;;;4928514;29;20439;-78
2022/10/30 01:33:58;;;;;;;9.85;2.53;;;15.80;77.00;;;;;;4927438;29;20587;-77
2022/10/30 01:36:35;;;;;;;9.57;1.77;;;15.80;77.00;;;;;;4942023;29;20046;-78
2022/10/30 01:39:09;;;;;;;11.48;2.25;;;15.80;77.00;;;;;;4928310;28;20406;-78
2022/10/30 01:41:35;;;;;;;13.27;2.83;;;15.80;77.00;;;;;;4939442;28;20099;-78
2022/10/30 01:44:10;;;;;;;8.50;3.00;;;15.80;77.00;;;;;;4928017;29;20047;-78
2022/10/30 01:47:30;;;;;;;8.90;2.08;;;15.80;77.10;;;;;;4927114;29;20562;-78
2022/10/30 01:50:31;;;;;;;6.50;1.55;;;15.80;77.10;;;;;;4847712;29;20054;-78
2022/10/30 01:53:15;;;;;;;10.63;2.40;;;15.80;77.10;;;;;;4901656;29;20043;-79
2022/10/30 01:56:11;;;;;;;8.23;2.13;;;15.80;77.10;;;;;;4934384;28;20391;-79
2022/10/30 01:59:06;;;;;;;6.97;2.00;;;15.80;77.10;;;;;;4928706;29;20392;-78
2022/10/30 02:01:35;;;;;;;8.75;2.20;;;15.80;77.10;;;;;;4911454;29;20053;-78
2022/10/30 02:04:02;;;;;;;9.48;2.33;;;15.80;77.10;;;;;;4939356;29;20059;-78
2022/10/30 02:06:28;;;;;;;7.13;1.80;;;15.80;77.10;;;;;;4910175;29;20031;-77
2022/10/30 02:08:55;;;;;;;12.00;2.72;;;15.80;77.20;;;;;;4928088;29;20058;-78
2022/10/30 02:11:23;;;;;;;9.30;2.22;;;15.70;77.00;;;;;;4927592;29;20028;-78
2022/10/30 02:13:53;;;;;;;12.55;4.15;;;15.70;77.10;;;;;;4926827;29;20510;-78
2022/10/30 02:16:20;;;;;;;11.98;2.63;;;15.70;77.10;;;;;;4933437;28;20473;-77
2022/10/30 02:18:46;;;;;;;10.75;2.38;;;15.70;77.70;;;;;;4943436;29;20050;-78
2022/10/30 02:21:12;;;;;;;7.10;1.67;;;15.70;77.20;;;;;;4928090;29;20031;-79
2022/10/30 02:23:38;;;;;;;8.82;2.13;;;15.70;77.20;;;;;;4924130;29;20505;-78
2022/10/30 02:26:04;;;;;;;9.48;1.90;;;15.70;77.20;;;;;;4927347;29;20127;-78
2022/10/30 02:28:30;;;;;;;12.70;3.28;;;15.70;77.30;;;;;;4944713;28;20206;-78
2022/10/30 02:30:56;;;;;;;8.57;2.40;;;15.70;77.30;;;;;;4940317;28;20383;-78
2022/10/30 02:33:24;;;;;;;10.68;2.67;;;15.80;77.40;;;;;;4926886;29;20042;-77
2022/10/30 02:35:50;;;;;;;9.88;2.67;;;15.70;77.30;;;;;;4944436;29;20068;-77
2022/10/30 02:38:17;;;;;;;11.18;3.08;;;15.80;77.40;;;;;;4927755;29;20043;-77
2022/10/30 02:40:44;;;;;;;13.95;3.10;;;15.80;77.40;;;;;;4911557;29;20035;-78
2022/10/30 02:43:09;;;;;;;7.75;1.85;;;15.80;77.40;;;;;;4927878;29;20057;-77
2022/10/30 02:45:35;;;;;;;9.10;2.72;;;15.80;77.40;;;;;;4944380;28;20307;-78
2022/10/30 02:48:01;;;;;;;9.02;1.90;;;15.80;77.30;;;;;;4947830;29;20043;-78
2022/10/30 02:50:28;;;;;;;9.40;2.30;;;15.80;77.30;;;;;;4944000;29;20032;-78
2022/10/30 02:52:53;;;;;;;10.20;2.20;;;15.80;77.30;;;;;;4922607;29;20047;-78
2022/10/30 02:55:21;;;;;;;8.27;2.45;;;15.80;77.30;;;;;;4948705;29;20426;-77
2022/10/30 02:57:47;;;;;;;10.60;3.65;;;15.80;77.30;;;;;;4931445;29;20043;-78
2022/10/30 03:00:13;;;;;;;9.13;2.13;;;15.80;77.30;;;;;;4935120;28;20019;-78
2022/10/30 03:02:39;;;;;;;7.05;1.65;;;15.90;77.40;;;;;;4915316;29;20043;-78
2022/10/30 03:05:05;;;;;;;7.53;1.80;;;15.90;77.40;;;;;;4918753;29;20452;-76
2022/10/30 03:07:31;;;;;;;9.85;2.47;;;15.90;77.40;;;;;;4935007;29;20288;-77
2022/10/30 03:09:57;;;;;;;9.23;3.17;;;15.90;77.40;;;;;;4919351;29;20035;-77
2022/10/30 03:12:23;;;;;;;12.02;2.45;;;15.90;77.30;;;;;;4952550;29;20094;-78
2022/10/30 03:14:51;;;;;;;6.75;2.13;;;15.90;77.40;;;;;;4951964;28;20429;-78
2022/10/30 03:17:17;;;;;;;8.48;2.30;;;15.90;77.30;;;;;;4933613;29;20039;-78
2022/10/30 03:19:43;;;;;;;8.05;2.13;;;15.90;77.30;;;;;;4946597;28;20494;-78
2022/10/30 03:22:09;;;;;;;7.53;2.20;;;16.00;77.50;;;;;;4929666;29;20039;-78
2022/10/30 03:24:37;;;;;;;11.48;3.28;;;16.00;77.50;;;;;;4947132;29;20176;-78
2022/10/30 03:27:03;;;;;;;11.93;3.08;;;16.00;77.40;;;;;;4929016;28;20510;-78
2022/10/30 03:29:29;;;;;;;8.23;2.78;;;16.00;77.40;;;;;;4933258;28;20160;-78
2022/10/30 03:31:54;;;;;;;8.13;2.42;;;16.00;77.40;;;;;;4933682;29;20063;-78
2022/10/30 03:34:21;;;;;;;7.68;1.88;;;16.00;77.40;;;;;;4934006;29;20397;-77
2022/10/30 03:36:47;;;;;;;8.63;2.55;;;16.10;77.50;;;;;;4934553;29;20111;-78
2022/10/30 03:39:13;;;;;;;8.55;2.30;;;16.10;77.50;;;;;;4952051;29;20019;-79
2022/10/30 03:41:42;;;;;;;8.73;1.77;;;16.10;77.40;;;;;;4930458;29;20129;-78
2022/10/30 03:44:08;;;;;;;8.30;2.10;;;16.10;77.50;;;;;;4949402;29;20035;-79
2022/10/30 03:46:34;;;;;;;11.65;2.55;;;16.10;78.00;;;;;;4934108;29;20401;-78
2022/10/30 03:49:20;;;;;;;7.15;2.03;;;16.10;77.50;;;;;;4922903;29;20383;-78
2022/10/30 03:51:47;;;;;;;7.72;1.80;;;16.10;77.40;;;;;;4918668;29;20078;-78
2022/10/30 03:54:13;;;;;;;6.68;1.50;;;16.10;77.40;;;;;;4946964;29;20043;-78
2022/10/30 03:56:38;;;;;;;11.35;2.65;;;16.10;77.40;;;;;;4946315;28;20037;-78
2022/10/30 03:59:06;;;;;;;8.02;1.92;;;16.10;77.40;;;;;;4918626;29;20031;-77
2022/10/30 04:01:37;;;;;;;9.32;2.85;;;16.10;77.40;;;;;;4933921;29;20498;-78
2022/10/30 04:04:03;;;;;;;10.45;2.47;;;16.10;77.40;;;;;;4933987;29;20035;-79
2022/10/30 04:06:29;;;;;;;11.05;2.50;;;16.10;77.30;;;;;;4933747;29;20039;-78
2022/10/30 04:08:55;;;;;;;6.25;1.85;;;16.10;77.40;;;;;;4917896;28;20031;-79
2022/10/30 04:11:22;;;;;;;15.20;3.35;;;16.10;77.30;;;;;;4917834;29;20441;-79
2022/10/30 04:13:48;;;;;;;7.28;1.80;;;16.10;77.40;;;;;;4950558;28;20039;-79
2022/10/30 04:16:14;;;;;;;10.63;2.78;;;16.10;77.40;;;;;;4933585;29;20512;-78
2022/10/30 04:18:40;;;;;;;10.93;2.70;;;16.10;77.30;;;;;;4932723;29;20082;-78
2022/10/30 04:21:06;;;;;;;7.75;2.10;;;16.10;77.40;;;;;;4932711;29;20027;-78
2022/10/30 04:23:34;;;;;;;8.85;2.15;;;16.10;77.40;;;;;;4949942;29;20041;-79
2022/10/30 04:26:02;;;;;;;8.73;2.17;;;16.10;77.40;;;;;;4933239;29;20419;-79
2022/10/30 04:28:28;;;;;;;7.88;1.80;;;16.10;77.40;;;;;;4916714;29;20073;-79
2022/10/30 04:30:55;;;;;;;11.20;2.88;;;16.10;77.40;;;;;;4917597;29;20471;-79
2022/10/30 04:33:21;;;;;;;7.22;2.42;;;16.10;77.30;;;;;;4916620;29;20031;-78
2022/10/30 04:35:49;;;;;;;8.40;2.17;;;16.10;77.40;;;;;;4917035;29;20031;-78
2022/10/30 04:38:18;;;;;;;9.40;2.13;;;16.10;77.40;;;;;;4933252;29;20035;-78
2022/10/30 04:40:44;;;;;;;14.40;3.08;;;16.10;77.40;;;;;;4933664;29;20046;-78
2022/10/30 04:43:13;;;;;;;7.90;1.95;;;16.10;77.40;;;;;;4933243;29;20039;-79
2022/10/30 04:45:39;;;;;;;7.90;1.33;;;16.10;77.40;;;;;;4933550;29;20033;-78
2022/10/30 04:48:12;;;;;;;5.65;1.80;;;16.10;77.30;;;;;;4917539;29;20115;-79
2022/10/30 04:50:38;;;;;;;9.18;1.98;;;16.10;77.30;;;;;;4945615;29;20058;-78
2022/10/30 04:53:11;;;;;;;9.93;1.83;;;16.10;77.30;;;;;;4924902;29;20038;-80
2022/10/30 04:55:37;;;;;;;6.32;1.73;;;16.10;77.30;;;;;;4950763;28;20024;-79
2022/10/30 04:58:03;;;;;;;8.05;2.55;;;16.10;77.30;;;;;;4930213;29;20040;-79
2022/10/30 05:00:32;;;;;;;8.90;2.05;;;16.10;77.30;;;;;;4928456;29;20026;-79
2022/10/30 05:03:16;;;;;;;8.43;2.20;;;16.10;77.30;;;;;;4932483;29;20055;-78
2022/10/30 05:05:43;;;;;;;8.68;2.35;;;16.10;77.30;;;;;;4932908;29;20046;-79
2022/10/30 05:08:09;;;;;;;6.47;2.58;;;16.00;77.20;;;;;;4950560;29;20031;-79
2022/10/30 05:10:41;;;;;;;6.07;1.77;;;16.00;77.20;;;;;;4933037;29;20379;-78
2022/10/30 05:13:11;;;;;;;6.72;2.00;;;16.00;77.20;;;;;;4932752;29;20487;-79
2022/10/30 05:15:37;;;;;;;6.65;2.10;;;16.00;77.20;;;;;;4948506;29;20039;-78
2022/10/30 05:18:03;;;;;;;9.48;2.42;;;16.00;77.30;;;;;;4915914;29;20380;-79
2022/10/30 05:20:29;;;;;;;10.35;3.05;;;16.00;77.30;;;;;;4928645;29;20102;-79
2022/10/30 05:22:57;;;;;;;6.60;2.22;;;16.00;77.30;;;;;;4944117;29;20035;-78
2022/10/30 05:25:25;;;;;;;9.85;2.97;;;16.00;77.30;;;;;;4929124;29;20396;-79
2022/10/30 05:28:03;;;;;;;8.80;1.85;;;16.00;77.30;;;;;;4926601;29;20402;-79
2022/10/30 05:30:34;;;;;;;11.27;3.22;;;16.00;77.30;;;;;;4932447;29;20446;-79
2022/10/30 05:33:04;;;;;;;9.25;1.77;;;16.00;77.30;;;;;;4931781;29;20041;-79
2022/10/30 05:35:31;;;;;;;7.47;1.85;;;16.00;77.30;;;;;;4948667;29;20041;-79
2022/10/30 05:37:58;;;;;;;10.68;2.72;;;16.00;77.20;;;;;;4946188;29;20094;-79
2022/10/30 05:40:25;;;;;;;7.07;2.05;;;16.00;77.20;;;;;;4909959;29;20562;-79
2022/10/30 05:42:52;;;;;;;6.68;2.28;;;16.10;77.40;;;;;;4945935;28;20642;-80
2022/10/30 05:45:18;;;;;;;10.40;2.03;;;16.10;77.40;;;;;;4939979;29;20036;-79
2022/10/30 05:47:56;;;;;;;9.77;3.03;;;16.10;77.30;;;;;;4927862;29;20035;-78
2022/10/30 05:50:23;;;;;;;6.22;1.48;;;16.10;77.40;;;;;;4927165;29;20034;-78
2022/10/30 05:53:09;;;;;;;7.10;2.10;;;16.10;77.30;;;;;;4927996;29;20047;-77
2022/10/30 05:55:37;;;;;;;11.45;2.15;;;16.10;77.40;;;;;;4943246;28;20032;-78
2022/10/30 05:58:12;;;;;;;9.57;2.35;;;16.10;77.30;;;;;;4928616;29;20032;-77
2022/10/30 06:00:43;;;;;;;11.23;1.77;;;16.10;77.30;;;;;;4930744;29;20035;-79
2022/10/30 06:03:12;;;;;;;5.35;2.05;;;16.10;77.30;;;;;;4917756;29;20039;-78
2022/10/30 06:05:44;;;;;;;7.50;2.30;;;16.10;77.30;;;;;;4911266;29;20039;-79
2022/10/30 06:08:10;;;;;;;6.43;1.65;;;16.10;77.30;;;;;;4912188;29;20035;-79
2022/10/30 06:10:36;;;;;;;11.98;2.45;;;16.10;77.30;;;;;;4928716;29;20104;-81
2022/10/30 06:13:11;;;;;;;9.65;1.77;;;16.10;77.30;;;;;;4943602;29;20040;-82
2022/10/30 06:15:48;;;;;;;15.05;3.08;;;16.10;77.30;;;;;;4929573;29;20403;-82
2022/10/30 06:18:14;;;;;;;8.38;2.47;;;16.10;77.30;;;;;;4928518;28;20245;-80
2022/10/30 06:20:43;;;;;;;13.48;2.22;;;16.10;77.30;;;;;;4922200;29;20039;-80
2022/10/30 06:23:29;;;;;;;17.15;4.43;;;16.10;77.40;;;;;;4903469;29;20219;-84
2022/10/30 06:26:01;;;;;;;11.40;2.45;;;16.00;77.20;;;;;;4927002;29;20287;-80
2022/10/30 06:28:42;;;;;;;11.43;2.35;;;16.10;77.40;;;;;;4919424;29;20047;-78
2022/10/30 06:31:10;;;;;;;9.18;2.20;;;16.00;77.30;;;;;;4941532;28;20044;-76
2022/10/30 06:33:37;;;;;;;8.73;1.80;;;16.10;77.50;;;;;;4945566;28;20039;-78
2022/10/30 06:36:04;;;;;;;13.82;3.38;;;16.00;77.40;;;;;;4914969;29;20388;-77
2022/10/30 06:38:29;;;;;;;10.45;2.28;;;16.10;77.50;;;;;;4931795;29;20723;-76
2022/10/30 06:40:56;;;;;;;10.52;2.75;;;16.10;77.60;;;;;;4942630;28;20664;-76
2022/10/30 06:43:45;;;;;;;8.52;2.33;;;16.00;77.40;;;;;;4929223;29;20395;-78
2022/10/30 06:46:20;;;;;;;8.75;2.38;;;16.00;77.40;;;;;;4942002;29;20032;-78
2022/10/30 06:48:46;;;;;;;14.07;2.92;;;16.00;77.40;;;;;;4940562;28;20031;-78
2022/10/30 06:51:14;;;;;;;11.00;3.05;;;16.00;77.50;;;;;;4929411;29;20082;-78
2022/10/30 06:53:40;;;;;;;9.48;2.28;;;16.00;77.50;;;;;;4914097;29;20041;-81
2022/10/30 06:56:35;;;;;;;9.55;2.10;;;16.00;77.50;;;;;;4935368;29;20039;-78
2022/10/30 06:59:09;;;;;;;9.90;2.70;;;16.00;77.50;;;;;;4923166;29;20115;-78
2022/10/30 07:01:42;;;;;;;8.43;2.20;;;16.00;78.00;;;;;;4944816;29;20051;-77
2022/10/30 07:04:16;;;;;;;11.30;2.58;;;16.00;77.50;;;;;;4930565;28;20051;-78
2022/10/30 07:06:43;;;;;;;13.68;2.95;;;16.00;77.60;;;;;;4930444;29;20031;-78
2022/10/30 07:09:09;;;;;;;8.32;3.05;;;15.90;77.40;;;;;;4927674;29;20047;-77
2022/10/30 07:11:36;;;;;;;11.38;3.00;;;16.00;77.60;;;;;;4930697;29;20031;-76
2022/10/30 07:14:11;;;;;;;8.18;2.05;;;15.90;77.50;;;;;;4934435;29;20034;-77
2022/10/30 07:16:57;;;;;;;11.23;3.00;;;15.90;77.50;;;;;;4911808;29;20399;-78
2022/10/30 07:19:24;;;;;;;9.15;2.25;;;15.90;77.50;;;;;;4928928;29;20628;-78
2022/10/30 07:21:53;;;;;;;9.05;2.90;;;15.90;77.50;;;;;;4929981;29;20039;-74
2022/10/30 07:24:19;;;;;;;8.27;2.13;;;15.90;77.50;;;;;;4933150;29;19926;-80
2022/10/30 07:26:55;;;;;;;10.77;2.80;;;15.90;77.60;;;;;;4924043;28;20043;-76
2022/10/30 07:29:33;;;;;;;8.82;2.15;;;15.90;77.60;;;;;;4914992;29;20410;-77
2022/10/30 07:32:19;;;;;;;7.20;1.67;;;15.90;77.60;;;;;;4947273;29;20039;-78
2022/10/30 07:35:07;;;;;;;9.52;2.35;;;15.90;77.60;;;;;;4939138;29;20059;-79
2022/10/30 07:38:11;;;;;;;9.65;2.00;;;15.90;77.60;;;;;;4945112;29;20160;-78
2022/10/30 07:40:55;;;;;;;6.97;1.75;;;15.90;77.50;;;;;;4932619;29;20533;-82
2022/10/30 07:43:38;;;;;;;12.77;3.67;;;16.00;77.70;;;;;;4909424;28;20594;-84
2022/10/30 07:46:22;;;;;;;12.55;3.25;;;16.00;77.90;;;;;;4935408;29;20027;-85
2022/10/30 07:49:07;;;;;;;12.25;2.78;;;16.10;78.90;;;;;;4933615;29;20299;-83
2022/10/30 07:51:41;;;;;;;10.48;3.25;;;16.20;79.60;;;;;;4934932;29;20031;-84
2022/10/30 07:54:07;;;;;;;11.77;2.38;;;16.30;80.30;;;;;;4937974;29;20114;-76
2022/10/30 07:56:37;;;;;;;8.38;2.58;;;16.40;80.80;;;;;;4930862;29;20038;-77
2022/10/30 07:59:41;;;;;;;11.70;3.20;;;16.60;81.40;;;;;;4854173;29;20497;-78
2022/10/30 08:02:26;;;;;;;9.50;2.30;;;16.70;81.60;;;;;;4853391;29;20530;-76
2022/10/30 08:05:12;;;;;;;10.63;3.45;;;16.90;82.00;;;;;;4901822;29;20047;-86
2022/10/30 08:08:08;;;;;;;12.13;2.53;;;17.00;82.20;;;;;;4925821;29;20521;-81
2022/10/30 08:10:35;;;;;;;13.65;3.40;;;17.10;82.30;;;;;;4947405;28;20039;-80
2022/10/30 08:13:02;;;;;;;9.70;2.85;;;17.20;82.60;;;;;;4931226;29;20467;-80
2022/10/30 08:15:28;;;;;;;10.25;3.60;;;17.30;82.80;;;;;;4940482;29;21016;-80
2022/10/30 08:17:54;;;;;;;9.32;2.67;;;17.40;83.00;;;;;;4918727;29;20398;-81
2022/10/30 08:20:22;;;;;;;12.77;3.22;;;17.50;83.10;;;;;;4928382;29;20035;-79
2022/10/30 08:22:54;;;;;;;13.00;3.03;;;17.50;83.10;;;;;;4940252;29;20502;-77
2022/10/30 08:25:29;;;;;;;10.45;3.25;;;17.50;83.20;;;;;;4930941;29;20039;-78
2022/10/30 08:28:01;;;;;;;11.55;2.35;;;17.70;83.60;;;;;;4918464;29;20054;-93
2022/10/30 08:30:33;;;;;;;12.45;2.40;;;17.70;83.70;;;;;;4943627;28;20058;-79
2022/10/30 08:33:01;;;;;;;12.45;2.22;;;17.80;83.90;;;;;;4929252;29;20033;-79
2022/10/30 08:35:47;;;;;;;9.40;2.88;;;17.80;83.90;;;;;;4947261;29;20023;-81
2022/10/30 08:38:14;;;;;;;11.18;2.88;;;17.90;84.00;;;;;;4929274;29;20090;-78
2022/10/30 08:40:42;;;;;;;10.38;3.80;;;18.00;84.00;;;;;;4926659;29;20059;-78
2022/10/30 08:43:08;;;;;;;11.50;3.20;;;18.00;83.70;;;;;;4918844;29;20047;-79
2022/10/30 08:45:34;;;;;;;9.60;2.20;;;18.10;83.70;;;;;;4925184;29;20091;-78
2022/10/30 08:48:09;;;;;;;10.73;2.60;;;18.10;83.40;;;;;;4921252;29;20027;-79
2022/10/30 08:50:37;;;;;;;6.55;2.25;;;18.00;83.10;;;;;;4928222;29;20039;-80
2022/10/30 08:53:07;;;;;;;10.02;2.72;;;18.10;83.10;;;;;;4929056;29;20482;-79
2022/10/30 08:55:34;;;;;;;13.38;2.92;;;18.10;82.80;;;;;;4910243;29;20035;-79
2022/10/30 08:58:02;;;;;;;11.25;3.00;;;18.00;82.60;;;;;;4926767;29;20042;-82
2022/10/30 09:00:29;;;;;;;10.43;3.20;;;18.00;82.40;;;;;;4939510;29;20027;-79
2022/10/30 09:03:10;;;;;;;10.55;2.42;;;18.00;82.20;;;;;;4934124;29;20040;-79
2022/10/30 09:06:00;;;;;;;12.25;3.25;;;18.00;82.10;;;;;;4945660;28;20447;-79
2022/10/30 09:08:45;;;;;;;12.27;2.22;;;18.00;81.80;;;;;;4947240;29;20039;-77
2022/10/30 09:11:31;;;;;;;12.73;3.42;;;17.90;81.60;;;;;;4945208;28;20039;-77
2022/10/30 09:13:57;;;;;;;14.25;3.97;;;17.80;81.40;;;;;;4941761;29;20036;-77
2022/10/30 09:16:24;;;;;;;12.48;2.85;;;17.80;81.30;;;;;;4922814;29;20030;-79
2022/10/30 09:18:49;;;;;;;9.30;2.70;;;17.70;81.00;;;;;;4894202;29;20584;-78
2022/10/30 09:21:16;;;;;;;8.35;1.98;;;17.70;80.90;;;;;;4910481;29;20028;-79
2022/10/30 09:23:45;;;;;;;13.07;3.83;;;17.70;80.90;;;;;;4913031;29;20469;-76
2022/10/30 09:26:29;;;;;;;14.23;4.10;;;17.70;80.80;;;;;;4942487;28;20030;-77
2022/10/30 09:29:02;;;;;;;9.43;3.13;;;17.70;80.70;;;;;;4927530;29;20589;-75
2022/10/30 09:31:43;;;;;;;15.57;4.95;;;17.70;80.60;;;;;;4948522;29;20028;-78
2022/10/30 09:34:13;;;;;;;23.23;6.25;;;17.80;80.50;;;;;;4926005;29;20666;-79
2022/10/30 09:36:46;;;;;;;20.27;6.37;;;17.80;80.60;;;;;;4946583;29;20028;-79
2022/10/30 09:39:12;;;;;;;23.58;7.43;;;17.90;81.60;;;;;;4939835;29;20367;-79
2022/10/30 09:41:53;;;;;;;18.63;5.22;;;18.00;81.40;;;;;;4939866;29;20023;-78
2022/10/30 09:44:50;;;;;;;22.13;6.27;;;18.10;81.90;;;;;;4906404;28;20043;-77
2022/10/30 09:47:21;;;;;;;17.10;5.13;;;18.30;82.50;;;;;;4938801;29;20118;-78
2022/10/30 09:49:51;;;;;;;18.42;5.07;;;18.40;82.50;;;;;;4932555;29;20032;-73
2022/10/30 09:52:44;;;;;;;14.32;4.28;;;18.60;82.50;;;;;;4936356;29;20349;-74
2022/10/30 09:55:10;;;;;;;;;;;18.80;82.60;;;;;;4957043;29;20145;-83
2022/10/30 09:57:57;;;;;;;15.25;5.45;;;18.90;82.30;;;;;;4954630;28;19918;-84
2022/10/30 10:00:32;;;;;;;17.10;5.03;;;19.00;82.20;;;;;;4944659;29;20141;-84
2022/10/30 10:03:32;;;;;;;13.60;4.32;;;19.10;82.10;;;;;;4932342;28;20102;-83
2022/10/30 10:06:19;;;;;;;12.57;3.78;;;19.20;82.10;;;;;;4948893;29;20035;-85
2022/10/30 10:09:14;;;;;;;13.25;3.35;;;19.20;81.90;;;;;;4936824;29;20130;-83
2022/10/30 10:12:10;;;;;;;15.73;4.90;;;19.20;81.80;;;;;;4943926;29;20038;-83
2022/10/30 10:14:41;;;;;;;12.18;3.28;;;19.20;81.70;;;;;;4943197;29;20047;-81
2022/10/30 10:17:12;;;;;;;12.57;3.60;;;19.30;81.80;;;;;;4928105;29;20046;-81
2022/10/30 10:19:47;;;;;;;13.35;3.83;;;19.30;82.30;;;;;;4961161;28;20469;-80
2022/10/30 10:22:20;;;;;;;14.68;3.90;;;19.30;81.70;;;;;;4960780;29;20181;-79
2022/10/30 10:24:46;;;;;;;12.98;3.58;;;19.30;81.70;;;;;;4959945;28;20152;-80
2022/10/30 10:27:18;;;;;;;12.93;3.70;;;19.40;81.80;;;;;;4958559;29;20031;-81
2022/10/30 10:29:51;;;;;;;13.95;3.45;;;19.40;81.70;;;;;;4944196;29;20110;-78
2022/10/30 10:32:26;;;;;;;10.27;2.92;;;19.40;81.50;;;;;;4960852;28;20095;-78
2022/10/30 10:35:10;;;;;;;12.63;4.60;;;19.50;81.60;;;;;;4948867;29;20083;-80
2022/10/30 10:37:44;;;;;;;11.45;3.63;;;19.60;81.50;;;;;;4960824;29;20193;-81
2022/10/30 10:40:49;;;;;;;14.05;3.40;;;19.80;81.50;;;;;;4944196;29;20107;-79
2022/10/30 10:43:48;;;;;;;14.32;4.20;;;19.90;81.20;;;;;;4929737;29;20054;-79
2022/10/30 10:46:30;;;;;;;9.43;3.20;;;20.00;80.90;;;;;;4948110;29;20739;-78
2022/10/30 10:49:12;;;;;;;13.45;3.33;;;20.10;80.90;;;;;;4954236;28;20038;-81
2022/10/30 10:51:58;;;;;;;8.85;2.97;;;20.20;80.70;;;;;;4921272;29;20070;-82
2022/10/30 10:54:35;;;;;;;11.52;3.67;;;20.30;80.40;;;;;;4950387;29;20091;-82
2022/10/30 10:57:04;;;;;;;9.45;3.05;;;20.30;80.20;;;;;;4961344;28;20126;-81
2022/10/30 10:59:36;;;;;;;11.45;2.80;;;20.40;80.20;;;;;;4955132;29;20130;-80
2022/10/30 11:02:08;;;;;;;9.50;2.33;;;20.50;80.10;;;;;;4943905;29;20091;-79
2022/10/30 11:04:40;;;;;;;13.97;3.00;;;20.60;79.80;;;;;;4959462;28;20099;-79
2022/10/30 11:07:22;;;;;;;9.33;3.83;;;20.80;79.80;;;;;;4959270;28;20345;-82
2022/10/30 11:09:56;;;;;;;10.10;3.00;;;21.10;79.60;;;;;;4960161;29;20078;-81
2022/10/30 11:12:26;;;;;;;8.52;2.95;;;21.20;79.10;;;;;;4952378;28;20580;-80
2022/10/30 11:14:52;;;;;;;6.95;3.03;;;21.40;78.90;;;;;;4940360;29;20046;-80
2022/10/30 11:17:37;;;;;;;9.20;3.05;;;21.50;78.70;;;;;;4928900;29;20020;-81
2022/10/30 11:20:22;;;;;;;7.95;2.13;;;21.60;78.20;;;;;;4949860;28;20102;-81
2022/10/30 11:22:51;;;;;;;7.32;2.50;;;21.70;78.00;;;;;;4941237;29;20179;-77
2022/10/30 11:25:22;;;;;;;6.57;2.00;;;21.80;78.10;;;;;;4959068;29;20103;-82
2022/10/30 11:27:54;;;;;;;9.60;2.30;;;21.80;77.70;;;;;;4957884;29;20099;-79
2022/10/30 11:30:23;;;;;;;7.77;2.60;;;22.00;77.50;;;;;;4934745;29;20554;-80
2022/10/30 11:32:49;;;;;;;8.57;2.53;;;22.10;77.20;;;;;;4936980;29;20261;-76
2022/10/30 11:35:18;;;;;;;8.82;2.03;;;22.20;76.90;;;;;;4947912;28;20406;-77
2022/10/30 11:37:46;;;;;;;8.98;2.33;;;22.30;76.60;;;;;;4954047;28;20035;-81
2022/10/30 11:40:12;;;;;;;8.10;2.47;;;22.30;76.40;;;;;;4937038;29;20047;-80
2022/10/30 11:42:40;;;;;;;11.32;2.25;;;22.40;76.30;;;;;;4934595;29;20255;-81
2022/10/30 11:45:17;;;;;;;7.80;1.92;;;22.40;75.90;;;;;;4955415;28;20034;-81
2022/10/30 11:47:43;;;;;;;8.88;2.97;;;22.50;75.80;;;;;;4940916;28;20118;-79
2022/10/30 11:50:18;;;;;;;7.57;2.40;;;22.50;75.70;;;;;;4939555;29;20115;-82
2022/10/30 11:52:45;;;;;;;7.70;2.08;;;22.50;75.50;;;;;;4949347;29;20070;-81
2022/10/30 11:55:29;;;;;;;7.45;1.80;;;22.60;75.70;;;;;;4927684;29;20122;-80
2022/10/30 11:57:56;;;;;;;7.10;2.00;;;22.60;75.50;;;;;;4940523;29;20141;-81
2022/10/30 12:00:29;;;;;;;6.95;2.67;;;22.50;75.30;;;;;;4942966;29;20119;-81
2022/10/30 12:02:59;;;;;;;14.27;3.50;;;22.50;75.10;;;;;;4957470;28;20043;-77
2022/10/30 12:05:24;;;;;;;7.70;1.92;;;22.50;75.20;;;;;;4945277;28;20039;-75
2022/10/30 12:07:53;;;;;;;10.50;2.08;;;22.50;75.10;;;;;;4945230;29;20123;-79
2022/10/30 12:10:29;;;;;;;6.65;2.55;;;22.40;74.80;;;;;;4948740;28;20198;-78
2022/10/30 12:12:55;;;;;;;10.45;5.43;;;22.20;74.30;;;;;;4944711;29;20035;-77
2022/10/30 12:15:25;;;;;;;14.68;5.78;;;22.10;74.70;;;;;;4944808;29;20031;-76
2022/10/30 12:18:00;;;;;;;11.35;5.95;;;21.90;75.40;;;;;;4943404;28;20550;-75
2022/10/30 12:20:27;;;;;;;7.47;4.78;;;21.80;75.70;;;;;;4928918;29;20039;-75
2022/10/30 12:22:53;;;;;;;14.23;6.15;;;21.60;76.10;;;;;;4946667;28;20252;-75
2022/10/30 12:25:30;;;;;;;10.70;3.80;;;21.50;76.90;;;;;;4930095;29;20050;-78
2022/10/30 12:28:07;;;;;;;10.65;4.55;;;21.40;77.40;;;;;;4928673;29;20043;-76
2022/10/30 12:30:42;;;;;;;8.77;3.67;;;21.30;77.60;;;;;;4928890;29;20238;-77
2022/10/30 12:33:16;;;;;;;6.55;3.53;;;21.10;77.70;;;;;;4929151;28;20049;-77
2022/10/30 12:35:49;;;;;;;6.90;2.90;;;21.00;77.80;;;;;;4947624;29;20061;-77
2022/10/30 12:38:21;;;;;;;5.30;2.70;;;20.80;77.60;;;;;;4937341;29;20090;-78
2022/10/30 12:41:11;;;;;;;9.27;2.85;;;20.70;77.60;;;;;;4939460;29;20512;-77
2022/10/30 12:43:41;;;;;;;6.78;3.67;;;20.70;78.00;;;;;;4954118;29;20411;-77
2022/10/30 12:46:25;;;;;;;6.32;2.42;;;20.70;78.00;;;;;;4942497;29;20091;-78
2022/10/30 12:49:10;;;;;;;5.32;2.22;;;20.80;78.10;;;;;;4954644;29;20090;-77
2022/10/30 12:51:51;;;;;;;4.88;2.08;;;20.80;78.00;;;;;;4947941;29;20024;-77
2022/10/30 12:54:48;;;;;;;5.30;2.10;;;20.80;77.80;;;;;;4950103;29;20486;-76
2022/10/30 12:57:15;;;;;;;5.95;2.33;;;20.80;77.60;;;;;;4958112;29;20118;-78
2022/10/30 13:00:03;;;;;;;5.13;1.60;;;20.80;77.50;;;;;;4939846;29;20140;-76
2022/10/30 13:02:56;;;;;;;5.78;2.70;;;20.80;77.40;;;;;;4942045;29;20099;-78
2022/10/30 13:05:45;;;;;;;4.15;1.55;;;20.70;77.30;;;;;;4957852;28;20047;-78
2022/10/30 13:09:02;;;;;;;5.22;2.10;;;20.60;77.10;;;;;;4924011;29;20050;-78
2022/10/30 13:11:37;;;;;;;5.00;1.75;;;20.60;77.00;;;;;;4924555;29;20126;-77
2022/10/30 13:14:28;;;;;;;4.97;1.55;;;20.60;77.00;;;;;;4957549;28;20455;-78